createdAt,value
2022-09-28T05:32:05.777Z,961.54
2022-09-28T05:33:06.704Z,961.54
2022-09-28T05:34:06.683Z,961.53
2022-09-28T05:35:06.675Z,961.55
2022-09-28T05:36:06.660Z,961.57
2022-09-28T05:37:06.672Z,961.61
2022-09-28T05:38:06.642Z,961.64
2022-09-28T05:39:06.641Z,961.65
2022-09-28T05:40:06.621Z,961.69
2022-09-28T05:41:07.096Z,961.73
2022-09-28T05:42:06.649Z,961.79
2022-09-28T05:43:06.657Z,961.79
2022-09-28T05:44:06.579Z,961.77
2022-09-28T05:45:06.614Z,961.78
2022-09-28T05:46:06.691Z,961.80
2022-09-28T05:47:06.571Z,961.81
2022-09-28T05:48:06.540Z,961.82
2022-09-28T05:49:06.527Z,961.81
2022-09-28T05:50:06.513Z,961.81
2022-09-28T05:51:06.506Z,961.78
2022-09-28T05:52:06.497Z,961.77
2022-09-28T05:53:06.505Z,961.76
2022-09-28T05:54:06.574Z,961.75
2022-09-28T05:55:06.475Z,961.75
2022-09-28T05:56:06.479Z,961.75
2022-09-28T05:57:06.448Z,961.75
2022-09-28T05:58:06.432Z,961.74
2022-09-28T05:59:06.437Z,961.72
2022-09-28T06:00:06.420Z,961.71
2022-09-28T06:01:06.505Z,961.69
2022-09-28T06:02:06.432Z,961.67
2022-09-28T06:03:08.885Z,961.66
2022-09-28T06:04:06.390Z,961.65
2022-09-28T06:05:06.361Z,961.65
2022-09-28T06:06:06.346Z,961.66
2022-09-28T06:07:06.337Z,961.65
2022-09-28T06:08:06.325Z,961.66
2022-09-28T06:09:06.329Z,961.67
2022-09-28T06:10:06.304Z,961.68
2022-09-28T06:11:06.320Z,961.66
2022-09-28T06:12:06.281Z,961.67
2022-09-28T06:13:06.275Z,961.65
2022-09-28T06:14:06.283Z,961.65
2022-09-28T06:15:06.250Z,961.67
2022-09-28T06:16:06.238Z,961.69
2022-09-28T06:17:06.297Z,961.70
2022-09-28T06:18:06.217Z,961.67
2022-09-28T06:19:06.212Z,961.68
2022-09-28T06:20:06.218Z,961.69
2022-09-28T06:21:06.192Z,961.68
2022-09-28T06:22:06.186Z,961.70
2022-09-28T06:23:06.171Z,961.70
2022-09-28T06:24:06.166Z,961.71
2022-09-28T06:25:06.151Z,961.70
2022-09-28T06:26:06.167Z,961.74
2022-09-28T06:27:06.159Z,961.76
2022-09-28T06:28:06.112Z,961.83
2022-09-28T06:29:06.107Z,961.85
2022-09-28T06:30:06.090Z,961.89
2022-09-28T06:31:06.199Z,961.89
2022-09-28T06:32:06.084Z,961.87
2022-09-28T06:33:06.065Z,961.88
2022-09-28T06:34:06.053Z,961.89
2022-09-28T06:35:06.036Z,961.91
2022-09-28T06:36:06.030Z,961.94
2022-09-28T06:37:06.022Z,961.97
2022-09-28T06:38:06.053Z,962.01
2022-09-28T06:39:05.999Z,962.04
2022-09-28T06:40:06.005Z,962.07
2022-09-28T06:41:05.984Z,962.07
2022-09-28T06:42:05.989Z,962.08
2022-09-28T06:43:05.950Z,962.08
2022-09-28T06:44:05.945Z,962.05
2022-09-28T06:45:06.062Z,962.06
2022-09-28T06:46:05.966Z,962.07
2022-09-28T06:47:05.910Z,962.02
2022-09-28T06:48:05.892Z,961.99
2022-09-28T06:49:05.894Z,961.98
2022-09-28T06:50:05.881Z,961.96
2022-09-28T06:51:05.868Z,961.97
2022-09-28T06:52:05.875Z,961.96
2022-09-28T06:53:05.871Z,961.98
2022-09-28T06:54:05.838Z,962.00
2022-09-28T06:55:05.821Z,962.03
2022-09-28T06:56:05.821Z,962.03
2022-09-28T06:57:05.801Z,962.06
2022-09-28T06:58:05.792Z,962.08
2022-09-28T06:59:05.782Z,962.11
2022-09-28T07:00:05.766Z,962.15
2022-09-28T07:01:05.843Z,962.15
2022-09-28T07:02:05.783Z,962.17
2022-09-28T07:03:05.753Z,962.19
2022-09-28T07:04:05.722Z,962.20
2022-09-28T07:05:05.726Z,962.21
2022-09-28T07:06:05.721Z,962.24
2022-09-28T07:07:05.698Z,962.22
2022-09-28T07:08:05.678Z,962.20
2022-09-28T07:09:22.245Z,962.21
2022-09-28T07:10:05.677Z,962.22
2022-09-28T07:11:05.647Z,962.25
2022-09-28T07:12:05.634Z,962.29
2022-09-28T07:13:06.473Z,962.30
2022-09-28T07:14:05.614Z,962.32
2022-09-28T07:15:05.617Z,962.29
2022-09-28T07:16:05.594Z,962.28
2022-09-28T07:17:13.566Z,962.27
2022-09-28T07:18:05.623Z,962.30
2022-09-28T07:19:05.570Z,962.32
2022-09-28T07:20:16.725Z,962.36
2022-09-28T07:21:05.578Z,962.39
2022-09-28T07:22:05.820Z,962.41
2022-09-28T07:23:17.056Z,962.45
2022-09-28T07:24:05.548Z,962.45
2022-09-28T07:25:05.508Z,962.48
2022-09-28T07:26:07.997Z,962.47
2022-09-28T07:27:05.476Z,962.51
2022-09-28T07:28:05.461Z,962.49
2022-09-28T07:29:05.472Z,962.52
2022-09-28T07:30:05.456Z,962.53
2022-09-28T07:31:05.460Z,962.55
2022-09-28T07:32:05.422Z,962.58
2022-09-28T07:33:05.430Z,962.61
2022-09-28T07:34:05.396Z,962.63
2022-09-28T07:35:05.404Z,962.62
2022-09-28T07:36:05.376Z,962.63
2022-09-28T07:37:05.372Z,962.61
2022-09-28T07:38:05.369Z,962.61
2022-09-28T07:39:05.347Z,962.60
2022-09-28T07:40:05.350Z,962.61
2022-09-28T07:41:05.380Z,962.61
2022-09-28T07:42:05.311Z,962.64
2022-09-28T07:43:05.303Z,962.68
2022-09-28T07:44:05.294Z,962.71
2022-09-28T07:45:05.295Z,962.69
2022-09-28T07:46:05.321Z,962.67
2022-09-28T07:47:05.264Z,962.69
2022-09-28T07:48:05.310Z,962.73
2022-09-28T07:49:08.328Z,962.78
2022-09-28T07:50:05.233Z,962.79
2022-09-28T07:51:05.243Z,962.79
2022-09-28T07:52:05.210Z,962.80
2022-09-28T07:53:05.198Z,962.80
2022-09-28T07:54:05.185Z,962.84
2022-09-28T07:55:07.226Z,962.87
2022-09-28T07:56:05.165Z,962.89
2022-09-28T07:57:05.169Z,962.90
2022-09-28T07:58:05.147Z,962.94
2022-09-28T07:59:05.143Z,962.94
2022-09-28T08:00:05.126Z,962.98
2022-09-28T08:01:05.153Z,963.00
2022-09-28T08:02:05.197Z,963.02
2022-09-28T08:03:05.100Z,963.01
2022-09-28T08:04:05.099Z,963.01
2022-09-28T08:05:05.079Z,963.02
2022-09-28T08:06:05.053Z,963.01
2022-09-28T08:07:05.056Z,963.01
2022-09-28T08:08:05.037Z,962.98
2022-09-28T08:09:05.054Z,963.00
2022-09-28T08:10:05.012Z,962.99
2022-09-28T08:11:05.045Z,962.99
2022-09-28T08:12:05.004Z,963.01
2022-09-28T08:13:06.545Z,963.03
2022-09-28T08:14:04.993Z,963.02
2022-09-28T08:15:04.993Z,963.05
2022-09-28T08:16:05.120Z,963.07
2022-09-28T08:17:04.940Z,963.08
2022-09-28T08:18:04.933Z,963.10
2022-09-28T08:19:04.937Z,963.10
2022-09-28T08:20:04.949Z,963.14
2022-09-28T08:21:04.894Z,963.18
2022-09-28T08:22:04.894Z,963.20
2022-09-28T08:23:04.897Z,963.23
2022-09-28T08:24:04.880Z,963.24
2022-09-28T08:25:04.874Z,963.27
2022-09-28T08:26:04.851Z,963.30
2022-09-28T08:27:04.843Z,963.32
2022-09-28T08:28:04.835Z,963.37
2022-09-28T08:29:04.826Z,963.38
2022-09-28T08:30:04.802Z,963.40
2022-09-28T08:31:04.827Z,963.44
2022-09-28T08:32:04.811Z,963.46
2022-09-28T08:33:04.767Z,963.48
2022-09-28T08:34:04.814Z,963.51
2022-09-28T08:35:04.757Z,963.50
2022-09-28T08:36:04.742Z,963.52
2022-09-28T08:37:04.727Z,963.53
2022-09-28T08:38:04.713Z,963.53
2022-09-28T08:39:04.711Z,963.51
2022-09-28T08:40:04.706Z,963.53
2022-09-28T08:41:04.804Z,963.54
2022-09-28T08:42:04.667Z,963.55
2022-09-28T08:43:04.673Z,963.53
2022-09-28T08:44:04.650Z,963.53
2022-09-28T08:45:04.703Z,963.52
2022-09-28T08:46:04.699Z,963.53
2022-09-28T08:47:04.621Z,963.52
2022-09-28T08:48:04.627Z,963.53
2022-09-28T08:49:24.277Z,963.53
2022-09-28T08:50:04.591Z,963.56
2022-09-28T08:51:04.613Z,963.56
2022-09-28T08:52:04.562Z,963.57
2022-09-28T08:53:04.574Z,963.59
2022-09-28T08:54:06.897Z,963.60
2022-09-28T08:55:04.544Z,963.62
2022-09-28T08:56:04.534Z,963.65
2022-09-28T08:57:04.510Z,963.65
2022-09-28T08:58:04.525Z,963.67
2022-09-28T08:59:04.489Z,963.66
2022-09-28T09:00:08.178Z,963.68
2022-09-28T09:01:04.542Z,963.71
2022-09-28T09:02:04.604Z,963.71
2022-09-28T09:03:04.465Z,963.73
2022-09-28T09:04:04.446Z,963.74
2022-09-28T09:05:04.438Z,963.74
2022-09-28T09:06:04.438Z,963.77
2022-09-28T09:07:04.436Z,963.78
2022-09-28T09:08:04.412Z,963.81
2022-09-28T09:09:04.390Z,963.80
2022-09-28T09:10:04.395Z,963.82
2022-09-28T09:11:04.367Z,963.82
2022-09-28T09:12:04.361Z,963.85
2022-09-28T09:13:04.353Z,963.85
2022-09-28T09:14:04.339Z,963.85
2022-09-28T09:15:03.307Z,963.87
2022-09-28T09:16:04.311Z,963.86
2022-09-28T09:17:04.366Z,963.88
2022-09-28T09:18:04.278Z,963.90
2022-09-28T09:19:04.269Z,963.92
2022-09-28T09:20:04.260Z,963.93
2022-09-28T09:21:04.251Z,963.92
2022-09-28T09:22:04.299Z,963.93
2022-09-28T09:23:04.230Z,963.91
2022-09-28T09:24:04.213Z,963.93
2022-09-28T09:25:04.217Z,963.94
2022-09-28T09:26:04.194Z,963.95
2022-09-28T09:27:04.186Z,963.97
2022-09-28T09:28:04.170Z,963.94
2022-09-28T09:29:04.183Z,963.94
2022-09-28T09:30:04.170Z,963.94
2022-09-28T09:31:04.194Z,963.98
2022-09-28T09:32:04.135Z,964.01
2022-09-28T09:33:04.132Z,963.95
2022-09-28T09:34:04.110Z,963.96
2022-09-28T09:35:04.107Z,963.94
2022-09-28T09:36:04.106Z,963.94
2022-09-28T09:37:04.078Z,963.93
2022-09-28T09:38:04.075Z,963.99
2022-09-28T09:39:04.066Z,964.03
2022-09-28T09:40:04.053Z,964.03
2022-09-28T09:41:04.167Z,964.09
2022-09-28T09:42:04.030Z,964.10
2022-09-28T09:43:04.010Z,964.09
2022-09-28T09:44:04.004Z,964.12
2022-09-28T09:45:04.026Z,964.13
2022-09-28T09:46:04.037Z,964.15
2022-09-28T09:47:03.972Z,964.14
2022-09-28T09:48:03.965Z,964.15
2022-09-28T09:49:03.977Z,964.14
2022-09-28T09:50:06.933Z,964.16
2022-09-28T09:51:03.930Z,964.17
2022-09-28T09:52:03.918Z,964.18
2022-09-28T09:53:03.902Z,964.20
2022-09-28T09:54:03.900Z,964.19
2022-09-28T09:55:03.901Z,964.20
2022-09-28T09:56:03.869Z,964.20
2022-09-28T09:57:03.851Z,964.22
2022-09-28T09:58:03.862Z,964.18
2022-09-28T09:59:03.842Z,964.20
2022-09-28T10:00:03.870Z,964.24
2022-09-28T10:01:03.872Z,964.26
2022-09-28T10:02:03.851Z,964.28
2022-09-28T10:03:03.806Z,964.30
2022-09-28T10:04:03.782Z,964.31
2022-09-28T10:05:03.765Z,964.33
2022-09-28T10:06:03.764Z,964.40
2022-09-28T10:07:03.757Z,964.42
2022-09-28T10:08:03.762Z,964.41
2022-09-28T10:09:03.727Z,964.43
2022-09-28T10:10:03.723Z,964.44
2022-09-28T10:11:03.702Z,964.47
2022-09-28T10:12:03.715Z,964.46
2022-09-28T10:13:03.680Z,964.48
2022-09-28T10:14:03.686Z,964.50
2022-09-28T10:15:03.664Z,964.51
2022-09-28T10:16:03.652Z,964.49
2022-09-28T10:17:03.825Z,964.47
2022-09-28T10:18:03.638Z,964.47
2022-09-28T10:19:03.621Z,964.47
2022-09-28T10:20:03.621Z,964.48
2022-09-28T10:21:03.615Z,964.49
2022-09-28T10:22:03.598Z,964.50
2022-09-28T10:23:03.604Z,964.50
2022-09-28T10:24:03.559Z,964.49
2022-09-28T10:25:03.549Z,964.51
2022-09-28T10:26:03.568Z,964.49
2022-09-28T10:27:03.527Z,964.47
2022-09-28T10:28:03.521Z,964.47
2022-09-28T10:29:03.534Z,964.48
2022-09-28T10:30:03.500Z,964.49
2022-09-28T10:31:03.577Z,964.51
2022-09-28T10:32:03.474Z,964.50
2022-09-28T10:33:03.471Z,964.50
2022-09-28T10:34:03.453Z,964.50
2022-09-28T10:35:03.467Z,964.49
2022-09-28T10:36:03.441Z,964.51
2022-09-28T10:37:03.415Z,964.48
2022-09-28T10:38:03.425Z,964.50
2022-09-28T10:39:03.394Z,964.53
2022-09-28T10:40:03.385Z,964.53
2022-09-28T10:41:03.484Z,964.54
2022-09-28T10:42:03.366Z,964.55
2022-09-28T10:43:03.353Z,964.59
2022-09-28T10:44:03.360Z,964.58
2022-09-28T10:45:03.355Z,964.55
2022-09-28T10:46:03.402Z,964.57
2022-09-28T10:47:03.322Z,964.56
2022-09-28T10:48:03.296Z,964.56
2022-09-28T10:49:03.284Z,964.53
2022-09-28T10:50:03.290Z,964.53
2022-09-28T10:51:03.264Z,964.53
2022-09-28T10:52:03.260Z,964.53
2022-09-28T10:53:03.240Z,964.57
2022-09-28T10:54:03.232Z,964.54
2022-09-28T10:55:03.242Z,964.55
2022-09-28T10:56:03.237Z,964.52
2022-09-28T10:57:03.201Z,964.48
2022-09-28T10:58:03.200Z,964.48
2022-09-28T10:59:03.183Z,964.46
2022-09-28T11:00:03.177Z,964.42
2022-09-28T11:01:03.229Z,964.44
2022-09-28T11:02:03.243Z,964.44
2022-09-28T11:03:03.131Z,964.43
2022-09-28T11:04:03.128Z,964.44
2022-09-28T11:05:03.125Z,964.41
2022-09-28T11:06:03.105Z,964.42
2022-09-28T11:07:03.093Z,964.40
2022-09-28T11:08:03.080Z,964.40
2022-09-28T11:09:03.077Z,964.42
2022-09-28T11:10:03.084Z,964.41
2022-09-28T11:11:03.047Z,964.43
2022-09-28T11:12:03.041Z,964.43
2022-09-28T11:13:03.028Z,964.44
2022-09-28T11:14:03.015Z,964.45
2022-09-28T11:15:03.031Z,964.41
2022-09-28T11:16:03.007Z,964.40
2022-09-28T11:17:03.016Z,964.41
2022-09-28T11:18:02.970Z,964.39
2022-09-28T11:19:02.993Z,964.40
2022-09-28T11:20:02.949Z,964.43
2022-09-28T11:21:02.943Z,964.39
2022-09-28T11:22:02.928Z,964.41
2022-09-28T11:23:02.920Z,964.39
2022-09-28T11:24:02.913Z,964.44
2022-09-28T11:25:02.899Z,964.37
2022-09-28T11:26:02.919Z,964.35
2022-09-28T11:27:02.884Z,964.37
2022-09-28T11:28:02.859Z,964.32
2022-09-28T11:29:02.845Z,964.32
2022-09-28T11:30:02.838Z,964.35
2022-09-28T11:31:02.907Z,964.32
2022-09-28T11:32:02.812Z,964.32
2022-09-28T11:33:02.801Z,964.33
2022-09-28T11:34:02.800Z,964.30
2022-09-28T11:35:02.778Z,964.26
2022-09-28T11:36:02.771Z,964.27
2022-09-28T11:37:02.809Z,964.25
2022-09-28T11:38:02.754Z,964.26
2022-09-28T11:39:02.765Z,964.29
2022-09-28T11:40:02.731Z,964.23
2022-09-28T11:41:02.768Z,964.33
2022-09-28T11:42:02.730Z,964.32
2022-09-28T11:43:02.729Z,964.36
2022-09-28T11:44:02.687Z,964.38
2022-09-28T11:45:02.678Z,964.39
2022-09-28T11:46:02.770Z,964.40
2022-09-28T11:47:02.669Z,964.42
2022-09-28T11:48:02.641Z,964.43
2022-09-28T11:49:02.643Z,964.41
2022-09-28T11:50:02.622Z,964.42
2022-09-28T11:51:02.618Z,964.36
2022-09-28T11:52:02.617Z,964.37
2022-09-28T11:53:02.597Z,964.45
2022-09-28T11:54:02.608Z,964.40
2022-09-28T11:55:02.560Z,964.41
2022-09-28T11:56:07.938Z,964.41
2022-09-28T11:57:02.598Z,964.41
2022-09-28T11:58:02.545Z,964.42
2022-09-28T11:59:02.538Z,964.43
2022-09-28T12:00:02.513Z,964.43
2022-09-28T12:01:02.503Z,964.46
2022-09-28T12:02:02.580Z,964.43
2022-09-28T12:03:02.634Z,964.45
2022-09-28T12:04:02.494Z,964.44
2022-09-28T12:05:02.467Z,964.44
2022-09-28T12:06:02.448Z,964.42
2022-09-28T12:07:02.433Z,964.42
2022-09-28T12:08:02.433Z,964.44
2022-09-28T12:09:02.450Z,964.44
2022-09-28T12:10:02.425Z,964.45
2022-09-28T12:11:02.389Z,964.44
2022-09-28T12:12:02.390Z,964.47
2022-09-28T12:13:02.369Z,964.50
2022-09-28T12:14:02.398Z,964.50
2022-09-28T12:15:02.350Z,964.51
2022-09-28T12:16:45.159Z,964.53
2022-09-28T12:17:07.946Z,964.53
2022-09-28T12:18:02.417Z,964.54
2022-09-28T12:19:02.316Z,964.55
2022-09-28T12:20:02.305Z,964.53
2022-09-28T12:21:05.099Z,964.54
2022-09-28T12:22:02.304Z,964.54
2022-09-28T12:23:02.263Z,964.54
2022-09-28T12:24:02.252Z,964.54
2022-09-28T12:25:02.307Z,964.55
2022-09-28T12:26:02.235Z,964.55
2022-09-28T12:27:02.215Z,964.51
2022-09-28T12:28:02.233Z,964.54
2022-09-28T12:29:02.195Z,964.54
2022-09-28T12:30:02.241Z,964.53
2022-09-28T12:31:02.240Z,964.52
2022-09-28T12:32:02.180Z,964.53
2022-09-28T12:33:02.177Z,964.52
2022-09-28T12:34:02.139Z,964.50
2022-09-28T12:35:02.130Z,964.46
2022-09-28T12:36:02.120Z,964.51
2022-09-28T12:37:02.111Z,964.53
2022-09-28T12:38:02.153Z,964.54
2022-09-28T12:39:18.129Z,964.53
2022-09-28T12:40:02.337Z,964.53
2022-09-28T12:41:02.149Z,964.59
2022-09-28T12:42:02.053Z,964.54
2022-09-28T12:43:02.039Z,964.49
2022-09-28T12:44:02.055Z,964.51
2022-09-28T12:45:02.017Z,964.48
2022-09-28T12:46:17.217Z,964.45
2022-09-28T12:47:02.090Z,964.48
2022-09-28T12:48:01.987Z,964.48
2022-09-28T12:49:51.539Z,964.53
2022-09-28T12:51:01.414Z,964.51
2022-09-28T12:52:01.947Z,964.50
2022-09-28T12:53:03.140Z,964.52
2022-09-28T12:54:01.921Z,964.55
2022-09-28T12:55:02.055Z,964.57
2022-09-28T12:56:01.907Z,964.56
2022-09-28T12:57:01.907Z,964.56
2022-09-28T12:58:01.877Z,964.55
2022-09-28T12:59:01.870Z,964.52
2022-09-28T13:00:02.099Z,964.53
2022-09-28T13:01:01.851Z,964.55
2022-09-28T13:02:01.848Z,964.52
2022-09-28T13:03:01.877Z,964.53
2022-09-28T13:04:01.835Z,964.54
2022-09-28T13:05:01.852Z,964.57
2022-09-28T13:06:01.815Z,964.58
2022-09-28T13:07:01.872Z,964.58
2022-09-28T13:08:01.774Z,964.58
2022-09-28T13:09:01.805Z,964.63
2022-09-28T13:10:01.894Z,964.62
2022-09-28T13:11:05.553Z,964.62
2022-09-28T13:12:01.745Z,964.63
2022-09-28T13:13:01.750Z,964.63
2022-09-28T13:14:01.707Z,964.63
2022-09-28T13:15:01.691Z,964.61
2022-09-28T13:16:01.761Z,964.57
2022-09-28T13:17:01.681Z,964.56
2022-09-28T13:18:01.685Z,964.56
2022-09-28T13:19:01.657Z,964.51
2022-09-28T13:20:01.642Z,964.51
2022-09-28T13:21:01.627Z,964.53
2022-09-28T13:22:01.653Z,964.56
2022-09-28T13:23:01.604Z,964.51
2022-09-28T13:24:20.682Z,964.47
2022-09-28T13:25:01.593Z,964.43
2022-09-28T13:26:01.574Z,964.42
2022-09-28T13:27:01.562Z,964.44
2022-09-28T13:28:01.558Z,964.46
2022-09-28T13:29:01.545Z,964.50
2022-09-28T13:30:01.556Z,964.50
2022-09-28T13:31:01.613Z,964.57
2022-09-28T13:32:01.507Z,964.58
2022-09-28T13:33:01.527Z,964.59
2022-09-28T13:34:01.512Z,964.57
2022-09-28T13:35:01.469Z,964.56
2022-09-28T13:36:01.464Z,964.58
2022-09-28T13:37:01.451Z,964.57
2022-09-28T13:38:01.443Z,964.51
2022-09-28T13:39:01.454Z,964.48
2022-09-28T13:40:01.453Z,964.45
2022-09-28T13:41:01.460Z,964.39
2022-09-28T13:42:01.400Z,964.43
2022-09-28T13:43:01.403Z,964.41
2022-09-28T13:44:01.385Z,964.46
2022-09-28T13:45:01.423Z,964.54
2022-09-28T13:46:01.455Z,964.49
2022-09-28T13:47:01.430Z,964.50
2022-09-28T13:48:01.356Z,964.53
2022-09-28T13:49:01.329Z,964.55
2022-09-28T13:50:01.314Z,964.58
2022-09-28T13:51:01.336Z,964.59
2022-09-28T13:52:01.293Z,964.61
2022-09-28T13:53:01.281Z,964.60
2022-09-28T13:54:01.282Z,964.66
2022-09-28T13:55:01.261Z,964.65
2022-09-28T13:56:01.252Z,964.64
2022-09-28T13:57:01.239Z,964.65
2022-09-28T13:58:01.246Z,964.64
2022-09-28T13:59:01.241Z,964.63
2022-09-28T14:00:01.249Z,964.63
2022-09-28T14:01:01.199Z,964.57
2022-09-28T14:02:06.361Z,964.54
2022-09-28T14:03:01.227Z,964.57
2022-09-28T14:04:01.161Z,964.59
2022-09-28T14:05:01.156Z,964.62
2022-09-28T14:06:01.143Z,964.67
2022-09-28T14:07:01.138Z,964.68
2022-09-28T14:08:01.144Z,964.70
2022-09-28T14:09:01.124Z,964.65
2022-09-28T14:10:01.099Z,964.64
2022-09-28T14:11:01.108Z,964.64
2022-09-28T14:12:01.110Z,964.64
2022-09-28T14:13:04.119Z,964.62
2022-09-28T14:14:01.092Z,964.60
2022-09-28T14:15:01.064Z,964.62
2022-09-28T14:16:01.184Z,964.66
2022-09-28T14:17:01.029Z,964.64
2022-09-28T14:18:01.023Z,964.62
2022-09-28T14:19:01.003Z,964.63
2022-09-28T14:20:00.995Z,964.59
2022-09-28T14:21:00.980Z,964.58
2022-09-28T14:22:00.997Z,964.59
2022-09-28T14:23:00.978Z,964.61
2022-09-28T14:24:00.955Z,964.57
2022-09-28T14:25:00.937Z,964.56
2022-09-28T14:26:00.964Z,964.55
2022-09-28T14:27:00.919Z,964.53
2022-09-28T14:28:00.973Z,964.55
2022-09-28T14:29:00.924Z,964.55
2022-09-28T14:30:00.889Z,964.60
2022-09-28T14:31:00.907Z,964.63
2022-09-28T14:32:00.864Z,964.67
2022-09-28T14:33:00.876Z,964.68
2022-09-28T14:34:00.866Z,964.70
2022-09-28T14:35:00.837Z,964.74
2022-09-28T14:36:00.820Z,964.78
2022-09-28T14:37:00.819Z,964.79
2022-09-28T14:38:00.800Z,964.79
2022-09-28T14:39:00.795Z,964.79
2022-09-28T14:40:00.804Z,964.79
2022-09-28T14:41:00.836Z,964.81
2022-09-28T14:42:00.772Z,964.82
2022-09-28T14:43:00.748Z,964.85
2022-09-28T14:44:00.740Z,964.87
2022-09-28T14:45:05.298Z,964.84
2022-09-28T14:46:00.804Z,964.86
2022-09-28T14:47:00.702Z,964.86
2022-09-28T14:48:00.689Z,964.89
2022-09-28T14:49:00.698Z,964.91
2022-09-28T14:50:00.667Z,964.93
2022-09-28T14:51:00.663Z,964.94
2022-09-28T14:52:00.646Z,964.95
2022-09-28T14:53:00.660Z,964.96
2022-09-28T14:54:00.634Z,964.95
2022-09-28T14:55:00.632Z,964.90
2022-09-28T14:56:00.657Z,964.92
2022-09-28T14:57:00.596Z,964.88
2022-09-28T14:58:00.608Z,964.88
2022-09-28T14:59:00.573Z,964.86
2022-09-28T15:00:00.559Z,964.86
2022-09-28T15:01:00.551Z,964.89
2022-09-28T15:02:00.576Z,964.94
2022-09-28T15:03:00.528Z,964.98
2022-09-28T15:04:00.580Z,965.02
2022-09-28T15:05:00.641Z,965.09
2022-09-28T15:06:00.496Z,965.09
2022-09-28T15:07:00.502Z,965.11
2022-09-28T15:08:00.497Z,965.11
2022-09-28T15:09:00.475Z,965.15
2022-09-28T15:10:00.463Z,965.16
2022-09-28T15:11:00.458Z,965.16
2022-09-28T15:12:00.442Z,965.17
2022-09-28T15:13:00.435Z,965.18
2022-09-28T15:14:00.412Z,965.18
2022-09-28T15:15:00.406Z,965.17
2022-09-28T15:16:00.413Z,965.18
2022-09-28T15:17:00.401Z,965.19
2022-09-28T15:18:00.363Z,965.19
2022-09-28T15:19:00.356Z,965.20
2022-09-28T15:20:00.367Z,965.24
2022-09-28T15:21:00.354Z,965.24
2022-09-28T15:22:00.321Z,965.23
2022-09-28T15:23:00.338Z,965.21
2022-09-28T15:24:00.310Z,965.23
2022-09-28T15:25:02.697Z,965.22
2022-09-28T15:26:00.276Z,965.24
2022-09-28T15:27:00.271Z,965.22
2022-09-28T15:28:00.267Z,965.23
2022-09-28T15:29:00.270Z,965.24
2022-09-28T15:30:00.234Z,965.23
2022-09-28T15:31:00.323Z,965.22
2022-09-28T15:32:00.257Z,965.22
2022-09-28T15:33:00.206Z,965.21
2022-09-28T15:34:00.215Z,965.23
2022-09-28T15:35:00.200Z,965.23
2022-09-28T15:36:00.205Z,965.22
2022-09-28T15:37:00.179Z,965.22
2022-09-28T15:38:00.145Z,965.20
2022-09-28T15:39:00.136Z,965.21
2022-09-28T15:40:00.142Z,965.23
2022-09-28T15:41:00.178Z,965.23
2022-09-28T15:42:00.117Z,965.25
2022-09-28T15:43:00.102Z,965.27
2022-09-28T15:44:00.093Z,965.28
2022-09-28T15:45:00.076Z,965.29
2022-09-28T15:46:00.126Z,965.32
2022-09-28T15:47:00.053Z,965.33
2022-09-28T15:48:00.053Z,965.34
2022-09-28T15:49:00.033Z,965.34
2022-09-28T15:50:00.029Z,965.35
2022-09-28T15:51:00.021Z,965.38
2022-09-28T15:52:00.032Z,965.37
2022-09-28T15:52:59.985Z,965.37
2022-09-28T15:53:59.972Z,965.39
2022-09-28T15:54:59.998Z,965.41
2022-09-28T15:55:59.951Z,965.42
2022-09-28T15:56:59.992Z,965.44
2022-09-28T15:57:59.994Z,965.44
2022-09-28T15:58:59.920Z,965.44
2022-09-28T15:59:59.918Z,965.44
2022-09-28T16:00:59.909Z,965.45
2022-09-28T16:01:59.919Z,965.46
2022-09-28T16:02:59.927Z,965.46
2022-09-28T16:03:59.866Z,965.47
2022-09-28T16:04:59.871Z,965.48
2022-09-28T16:05:59.856Z,965.48
2022-09-28T16:06:59.848Z,965.50
2022-09-28T16:07:59.828Z,965.49
2022-09-28T16:08:59.809Z,965.50
2022-09-28T16:09:59.796Z,965.51
2022-09-28T16:10:59.787Z,965.51
2022-09-28T16:11:59.779Z,965.52
2022-09-28T16:12:59.790Z,965.51
2022-09-28T16:13:59.753Z,965.53
2022-09-28T16:14:59.747Z,965.53
2022-09-28T16:16:00.046Z,965.56
2022-09-28T16:17:00.725Z,965.57
2022-09-28T16:17:59.709Z,965.57
2022-09-28T16:18:59.706Z,965.59
2022-09-28T16:19:59.701Z,965.59
2022-09-28T16:20:59.715Z,965.61
2022-09-28T16:21:59.672Z,965.60
2022-09-28T16:22:59.663Z,965.62
2022-09-28T16:23:59.668Z,965.63
2022-09-28T16:24:59.629Z,965.62
2022-09-28T16:25:59.771Z,965.63
2022-09-28T16:26:59.679Z,965.62
2022-09-28T16:27:59.617Z,965.63
2022-09-28T16:28:59.605Z,965.65
2022-09-28T16:29:59.602Z,965.65
2022-09-28T16:30:59.644Z,965.66
2022-09-28T16:31:59.588Z,965.66
2022-09-28T16:32:58.569Z,965.67
2022-09-28T16:33:59.569Z,965.67
2022-09-28T16:34:59.581Z,965.68
2022-09-28T16:35:59.539Z,965.69
2022-09-28T16:36:59.528Z,965.70
2022-09-28T16:37:59.527Z,965.71
2022-09-28T16:38:59.504Z,965.72
2022-09-28T16:39:59.516Z,965.73
2022-09-28T16:40:59.540Z,965.73
2022-09-28T16:41:59.466Z,965.75
2022-09-28T16:42:59.491Z,965.75
2022-09-28T16:43:59.463Z,965.76
2022-09-28T16:44:59.541Z,965.77
2022-09-28T16:45:59.548Z,965.78
2022-09-28T16:46:59.503Z,965.78
2022-09-28T16:47:59.455Z,965.79
2022-09-28T16:48:59.417Z,965.80
2022-09-28T16:49:59.405Z,965.79
2022-09-28T16:50:59.395Z,965.81
2022-09-28T16:51:59.369Z,965.80
2022-09-28T16:53:00.217Z,965.82
2022-09-28T16:53:59.336Z,965.82
2022-09-28T16:54:59.337Z,965.83
2022-09-28T16:55:59.367Z,965.83
2022-09-28T16:56:59.365Z,965.83
2022-09-28T16:57:59.329Z,965.83
2022-09-28T16:58:59.301Z,965.84
2022-09-28T16:59:59.323Z,965.84
2022-09-28T17:00:59.276Z,965.85
2022-09-28T17:01:59.457Z,965.85
2022-09-28T17:02:59.376Z,965.85
2022-09-28T17:03:59.288Z,965.85
2022-09-28T17:04:59.236Z,965.85
2022-09-28T17:05:59.299Z,965.85
2022-09-28T17:06:59.309Z,965.84
2022-09-28T17:07:59.256Z,965.83
2022-09-28T17:08:59.218Z,965.82
2022-09-28T17:09:59.391Z,965.82
2022-09-28T17:11:18.163Z,965.83
2022-09-28T17:11:59.290Z,965.83
2022-09-28T17:12:59.148Z,965.83
2022-09-28T17:13:59.205Z,965.82
2022-09-28T17:14:59.093Z,965.83
2022-09-28T17:15:59.099Z,965.83
2022-09-28T17:17:08.209Z,965.83
2022-09-28T17:17:59.066Z,965.83
2022-09-28T17:18:59.062Z,965.84
2022-09-28T17:19:59.128Z,965.85
2022-09-28T17:20:59.034Z,965.85
2022-09-28T17:21:59.013Z,965.86
2022-09-28T17:22:59.006Z,965.86
2022-09-28T17:23:59.030Z,965.87
2022-09-28T17:24:59.021Z,965.87
2022-09-28T17:25:59.007Z,965.88
2022-09-28T17:26:58.978Z,965.88
2022-09-28T17:27:58.949Z,965.90
2022-09-28T17:28:58.940Z,965.90
2022-09-28T17:29:58.954Z,965.90
2022-09-28T17:30:58.998Z,965.90
2022-09-28T17:31:58.907Z,965.90
2022-09-28T17:32:58.956Z,965.91
2022-09-28T17:33:58.953Z,965.91
2022-09-28T17:35:22.635Z,965.92
2022-09-28T17:35:58.953Z,965.92
2022-09-28T17:36:58.939Z,965.93
2022-09-28T17:37:58.942Z,965.93
2022-09-28T17:38:58.913Z,965.94
2022-09-28T17:39:58.953Z,965.94
2022-09-28T17:40:58.926Z,965.96
2022-09-28T17:41:58.875Z,965.96
2022-09-28T17:42:58.846Z,965.97
2022-09-28T17:43:58.843Z,965.98
2022-09-28T17:44:58.822Z,965.99
2022-09-28T17:45:58.857Z,966.00
2022-09-28T17:46:58.807Z,966.01
2022-09-28T17:47:58.784Z,966.02
2022-09-28T17:48:58.774Z,966.02
2022-09-28T17:49:58.928Z,966.02
2022-09-28T17:50:58.770Z,966.03
2022-09-28T17:51:58.762Z,966.03
2022-09-28T17:52:58.736Z,966.03
2022-09-28T17:53:58.717Z,966.04
2022-09-28T17:54:58.710Z,966.05
2022-09-28T17:55:58.719Z,966.05
2022-09-28T17:56:58.789Z,966.05
2022-09-28T17:57:58.808Z,966.05
2022-09-28T17:58:58.735Z,966.05
2022-09-28T17:59:58.791Z,966.05
2022-09-28T18:00:58.748Z,966.06